地図

経路データ

SID SEASON NUMBER BASIN SUBBASIN NAME ISO_TIME NATURE LAT LON WMO_WIND WMO_PRES WMO_AGENCY TRACK_TYPE DIST2LAND LANDFALL IFLAG USA_AGENCY USA_ATCF_ID USA_LAT USA_LON USA_RECORD USA_STATUS USA_WIND USA_PRES USA_SSHS USA_R34_NE USA_R34_SE USA_R34_SW USA_R34_NW USA_R50_NE USA_R50_SE USA_R50_SW USA_R50_NW USA_R64_NE USA_R64_SE USA_R64_SW USA_R64_NW USA_POCI USA_ROCI USA_RMW USA_EYE TOKYO_LAT TOKYO_LON TOKYO_GRADE TOKYO_WIND TOKYO_PRES TOKYO_R50_DIR TOKYO_R50_LONG TOKYO_R50_SHORT TOKYO_R30_DIR TOKYO_R30_LONG TOKYO_R30_SHORT TOKYO_LAND CMA_LAT CMA_LON CMA_CAT CMA_WIND CMA_PRES HKO_LAT HKO_LON HKO_CAT HKO_WIND HKO_PRES NEWDELHI_LAT NEWDELHI_LON NEWDELHI_GRADE NEWDELHI_WIND NEWDELHI_PRES NEWDELHI_CI NEWDELHI_DP NEWDELHI_POCI REUNION_LAT REUNION_LON REUNION_TYPE REUNION_WIND REUNION_PRES REUNION_TNUM REUNION_CI REUNION_RMW REUNION_R34_NE REUNION_R34_SE REUNION_R34_SW REUNION_R34_NW REUNION_R50_NE REUNION_R50_SE REUNION_R50_SW REUNION_R50_NW REUNION_R64_NE REUNION_R64_SE REUNION_R64_SW REUNION_R64_NW BOM_LAT BOM_LON BOM_TYPE BOM_WIND BOM_PRES BOM_TNUM BOM_CI BOM_RMW BOM_R34_NE BOM_R34_SE BOM_R34_SW BOM_R34_NW BOM_R50_NE BOM_R50_SE BOM_R50_SW BOM_R50_NW BOM_R64_NE BOM_R64_SE BOM_R64_SW BOM_R64_NW BOM_ROCI BOM_POCI BOM_EYE BOM_POS_METHOD BOM_PRES_METHOD NADI_LAT NADI_LON NADI_CAT NADI_WIND NADI_PRES WELLINGTON_LAT WELLINGTON_LON WELLINGTON_WIND WELLINGTON_PRES DS824_LAT DS824_LON DS824_STAGE DS824_WIND DS824_PRES TD9636_LAT TD9636_LON TD9636_STAGE TD9636_WIND TD9636_PRES TD9635_LAT TD9635_LON TD9635_WIND TD9635_PRES TD9635_ROCI NEUMANN_LAT NEUMANN_LON NEUMANN_CLASS NEUMANN_WIND NEUMANN_PRES MLC_LAT MLC_LON MLC_CLASS MLC_WIND MLC_PRES USA_GUST BOM_GUST BOM_GUST_PER REUNION_GUST REUNION_GUST_PER USA_SEAHGT USA_SEARAD_NE USA_SEARAD_SE USA_SEARAD_SW USA_SEARAD_NW STORM_SPEED STORM_DIR
1955276N11116 1955 81 WP MM NOT_NAMED 1955-10-03 06:00:00 TS 11.0000 115.600 main 313 297 __O___________ -1 11.0000 115.600 0 1002 11 61
1955276N11116 1955 81 WP MM NOT_NAMED 1955-10-03 09:00:00 TS 11.2652 116.082 main 299 290 __P___________ -1 11.2652 116.082 0 1002 10 60
1955276N11116 1955 81 WP MM NOT_NAMED 1955-10-03 12:00:00 TS 11.5000 116.500 main 294 275 __O___________ -1 11.5000 116.500 1 29 1002 8 59
1955276N11116 1955 81 WP MM NOT_NAMED 1955-10-03 15:00:00 TS 11.6924 116.815 main 282 282 __P___________ -1 11.6924 116.815 1 29 1002 11 15
1955276N11116 1955 81 WP MM NOT_NAMED 1955-10-03 18:00:00 TS 12.5857 116.800 main 323 323 O_O______O_O__ jtwc_wp WP171955 13.5000 116.400 20 -1 11.9000 117.100 1 29 1002 13.5000 116.400 TC 20 13.5000 116.400 20 1004 180 12 7
1955276N11116 1955 81 WP MM NOT_NAMED 1955-10-03 21:00:00 TS 12.9095 116.967 main 323 321 P_P______P_P__ WP171955 13.3826 116.655 22 -1 12.2000 117.435 1 29 1002 13.3826 116.655 TC 22 13.3826 116.655 22 1004 150 6 36
1955276N11116 1955 81 WP MM NOT_NAMED 1955-10-04 00:00:00 TS 13.0714 117.157 main 320 304 O_O______OOO__ jtwc_wp WP171955 13.3000 116.900 25 -1 12.5000 117.800 1 29 1002 13.3000 116.900 TC 25 13.3000 116.900 1 25 13.3000 116.900 25 1004 120 5 59
1955276N11116 1955 81 WP MM NOT_NAMED 1955-10-04 03:00:00 TS 13.1531 117.378 main 312 282 P_P______PPP__ WP171955 13.2774 117.135 27 -1 12.7074 118.185 1 29 1001 13.2774 117.135 TC 27 13.2988 117.224 1 25 13.2774 117.135 27 1004 120 5 74
1955276N11116 1955 81 WP MM NOT_NAMED 1955-10-04 06:00:00 TS 13.2170 117.674 main 282 249 O_O______OPO__ jtwc_wp WP171955 13.3000 117.400 30 -1 12.9000 118.600 1 29 1000 13.3000 117.400 TC 30 13.3079 117.538 1 25 13.3000 117.400 30 1004 120 7 78
1955276N11116 1955 81 WP MM NOT_NAMED 1955-10-04 09:00:00 TS 13.2942 118.036 main 249 205 P_P______PPP__ WP171955 13.3351 117.757 27 -1 13.1276 119.073 1 29 1000 13.3351 117.757 TC 27 13.3380 117.833 1 25 13.3351 117.757 27 1003 120 7 75
1955276N11116 1955 81 WP MM NOT_NAMED 1955-10-04 12:00:00 TS 13.4000 118.380 main 205 184 O_O______OOO__ jtwc_wp WP171955 13.4000 118.100 25 -1 13.4000 119.500 1 29 1000 13.4000 118.100 TC 25 13.4000 118.100 1 25 13.4000 118.100 25 1003 120 6 68
1955276N11116 1955 81 WP MM NOT_NAMED 1955-10-04 15:00:00 TS 13.5266 118.634 main 184 163 P_P______PPP__ WP171955 13.4699 118.330 27 -1 13.7199 119.847 1 33 1000 13.4699 118.330 TC 27 13.5033 118.331 1 25 13.4699 118.330 27 1002 120 5 53
1955276N11116 1955 81 WP MM NOT_NAMED 1955-10-04 18:00:00 TS 13.7105 118.805 main 165 157 O_O______OPO__ jtwc_wp WP171955 13.6000 118.500 30 -1 14.1000 120.000 2 38 1000 13.6000 118.500 TC 30 13.6524 118.525 1 25 13.6000 118.500 30 1002 120 5 31
1955276N11116 1955 81 WP MM NOT_NAMED 1955-10-04 21:00:00 TS 13.9705 118.906 main 157 131 P_P______PPP__ WP171955 13.8125 118.658 27 -1 14.5650 119.875 2 38 1000 13.8125 118.658 TC 27 13.8503 118.681 1 25 13.8125 118.658 27 1002 120 6 14
1955276N11116 1955 81 WP MM NOT_NAMED 1955-10-05 00:00:00 TS 14.2800 118.960 main 131 120 O_O______OOO__ jtwc_wp WP171955 14.1000 118.800 25 -1 15.0000 119.600 2 38 1000 14.1000 118.800 TC 25 14.1000 118.800 1 25 14.1000 118.800 25 1002 120 7 13
1955276N11116 1955 81 WP MM NOT_NAMED 1955-10-05 03:00:00 TS 14.6025 119.052 main 109 102 P_P______PPP__ WP171955 14.4350 118.980 25 -1 15.2874 119.372 2 38 1000 14.4350 118.980 TC 25 14.4198 118.946 1 26 14.4350 118.980 25 1002 120 7 11
1955276N11116 1955 81 WP MM NOT_NAMED 1955-10-05 06:00:00 TS 14.9369 119.090 main 102 88 O_O______OPO__ jtwc_wp WP171955 14.8000 119.100 25 -1 15.5000 119.100 2 38 1000 14.8000 119.100 TC 25 14.7847 119.049 1 27 14.8000 119.100 25 1002 120 7 358
1955276N11116 1955 81 WP MM NOT_NAMED 1955-10-05 09:00:00 TS 15.2689 119.038 main 97 93 P_P______PPP__ WP171955 15.1499 119.110 27 -1 15.7374 118.780 2 38 1000 15.1499 119.110 TC 27 15.1572 119.078 1 28 15.1499 119.110 27 1002 120 7 343
1955276N11116 1955 81 WP MM NOT_NAMED 1955-10-05 12:00:00 TS 15.5800 118.880 main 96 96 O_O______OOO__ jtwc_wp WP171955 15.5000 119.000 30 -1 15.9000 118.400 2 38 1000 15.5000 119.000 TC 30 15.5000 119.000 1 30 15.5000 119.000 30 1003 120 7 328
1955276N11116 1955 81 WP MM NOT_NAMED 1955-10-05 15:00:00 TS 15.8764 118.643 main 118 117 P_P______PPP__ WP171955 15.8874 118.803 32 -1 15.9224 117.972 2 38 999 15.8874 118.803 TC 32 15.7970 118.836 1 31 15.8874 118.803 32 1003 120 8 314
1955276N11116 1955 81 WP MM NOT_NAMED 1955-10-05 18:00:00 TS 16.1108 118.312 main 150 150 O_O______OPO__ jtwc_wp WP171955 16.2000 118.500 35 0 15.9000 117.500 2 38 998 16.2000 118.500 TC 35 16.0541 118.561 1 32 16.2000 118.500 35 1003 120 8 299
1955276N11116 1955 81 WP MM NOT_NAMED 1955-10-05 21:00:00 TS 16.2517 117.932 main 195 195 P_P______PPP__ WP171955 16.3523 118.160 35 0 15.9425 117.000 2 38 998 16.3523 118.160 TC 35 16.2592 118.180 1 33 16.3523 118.160 35 1002 120 8 284
1955276N11116 1955 81 WP MM NOT_NAMED 1955-10-06 00:00:00 TS 16.3200 117.460 main 237 237 O_O______OOO__ jtwc_wp WP171955 16.4000 117.700 35 0 16.0000 116.500 2 38 998 16.4000 117.700 TC 35 16.4000 117.700 2 35 16.4000 117.700 35 1001 120 10 276
1955276N11116 1955 81 WP MM NOT_NAMED 1955-10-06 03:00:00 TS 16.3544 116.886 main 302 302 P_P______PPP__ WP171955 16.4151 117.087 32 -1 16.0575 116.020 2 33 999 16.4151 117.087 TC 32 16.4692 117.147 2 33 16.4151 117.087 32 1000 150 12 272
1955276N11116 1955 81 WP MM NOT_NAMED 1955-10-06 06:00:00 TS 16.3551 116.261 main 365 365 O_O______OPO__ jtwc_wp WP171955 16.4000 116.400 30 -1 16.1000 115.600 1 29 1000 16.4000 116.400 TC 30 16.4755 116.504 2 32 16.4000 116.400 30 999 180 12 270
1955276N11116 1955 81 WP MM NOT_NAMED 1955-10-06 09:00:00 TS 16.3546 115.673 main 429 429 P_P______PPP__ WP171955 16.4073 115.750 30 -1 16.1072 115.307 1 29 1000 16.4073 115.750 TC 30 16.4440 115.809 2 31 16.4073 115.750 30 998 180 11 269
1955276N11116 1955 81 WP MM NOT_NAMED 1955-10-06 12:00:00 TS 16.3400 115.080 main 492 492 O_O______OOO__ jtwc_wp WP171955 16.4000 115.100 30 -1 16.1000 115.000 1 29 1000 16.4000 115.100 TC 30 16.4000 115.100 1 30 16.4000 115.100 30 998 180 12 268
1955276N11116 1955 81 WP MM NOT_NAMED 1955-10-06 15:00:00 TS 16.3064 114.456 main 508 447 P_P______PPP__ WP171955 16.3497 114.457 30 -1 16.1001 114.530 1 29 1000 16.3497 114.457 TC 30 16.3827 114.375 1 31 16.3497 114.457 30 998 180 12 267
1955276N11116 1955 81 WP MM NOT_NAMED 1955-10-06 18:00:00 TS 16.2717 113.811 main 447 400 O_O______OPO__ jtwc_wp WP171955 16.3000 113.800 30 -1 16.1000 114.000 1 29 1000 16.3000 113.800 TC 30 16.3584 113.652 1 32 16.3000 113.800 30 999 180 13 268
1955276N11116 1955 81 WP MM NOT_NAMED 1955-10-06 21:00:00 TS 16.2616 113.133 main 392 355 P_P______PPP__ WP171955 16.2927 113.063 32 -1 16.0999 113.500 1 33 999 16.2927 113.063 TC 32 16.3298 112.978 1 33 16.2927 113.063 32 999 210 12 269
1955276N11116 1955 81 WP MM NOT_NAMED 1955-10-07 00:00:00 TS 16.2600 112.520 main 348 323 O_O______OOO__ jtwc_wp WP171955 16.3000 112.400 35 0 16.1000 113.000 2 38 998 16.3000 112.400 TC 35 16.3000 112.400 2 35 16.3000 112.400 35 1000 240 10 270
1955276N11116 1955 81 WP MM NOT_NAMED 1955-10-07 03:00:00 TS 16.2605 112.055 main 323 296 P_P______PPP__ WP171955 16.3072 111.933 35 0 16.1074 112.500 2 43 998 16.3072 111.933 TC 35 16.2737 111.979 2 35 16.3072 111.933 35 1000 210 8 269
1955276N11116 1955 81 WP MM NOT_NAMED 1955-10-07 06:00:00 TS 16.2497 111.691 main 305 287 O_O______OPO__ jtwc_wp WP171955 16.3000 111.600 35 0 16.1000 112.000 3 48 998 16.3000 111.600 TC 35 16.2484 111.653 2 35 16.3000 111.600 35 1000 180 7 266
1955276N11116 1955 81 WP MM NOT_NAMED 1955-10-07 09:00:00 TS 16.2107 111.381 main 287 260 P_P______PPP__ WP171955 16.2498 111.342 35 0 16.0799 111.500 3 43 998 16.2498 111.342 TC 35 16.2240 111.375 2 35 16.2498 111.342 35 999 240 6 261
1955276N11116 1955 81 WP MM NOT_NAMED 1955-10-07 12:00:00 TS 16.1600 111.080 main 260 217 O_O______OOO__ jtwc_wp WP171955 16.2000 111.100 35 0 16.0000 111.000 2 38 998 16.2000 111.100 TC 35 16.2000 111.100 2 35 16.2000 111.100 35 999 300 7 262
1955276N11116 1955 81 WP MM NOT_NAMED 1955-10-07 15:00:00 TS 16.1174 110.705 main 217 180 P_P______PPP__ WP171955 16.2000 110.765 35 0 15.8000 110.485 2 38 998 16.2000 110.765 TC 35 16.1872 110.745 2 33 16.2000 110.765 35 998 270 7 263
1955276N11116 1955 81 WP MM NOT_NAMED 1955-10-07 18:00:00 TS 16.0745 110.317 main 180 148 O_O______OPO__ jtwc_wp WP171955 16.2000 110.400 35 0 15.6000 110.000 2 38 998 16.2000 110.400 TC 35 16.1725 110.385 2 32 16.2000 110.400 35 998 240 7 263
1955276N11116 1955 81 WP MM NOT_NAMED 1955-10-07 21:00:00 TS 16.0323 109.939 main 139 116 P_P______PPP__ WP171955 16.1650 110.027 32 -1 15.5199 109.578 2 38 998 16.1650 110.027 TC 32 16.1466 110.033 2 31 16.1650 110.027 32 997 240 7 264
1955276N11116 1955 81 WP MM NOT_NAMED 1955-10-08 00:00:00 TS 16.0053 109.621 main 116 100 O_O______OOO__ jtwc_wp WP171955 16.1000 109.700 30 -1 15.5000 109.200 2 38 998 16.1000 109.700 TC 30 16.1000 109.700 1 30 16.1000 109.700 30 997 240 5 261
1955276N11116 1955 81 WP MM NOT_NAMED 1955-10-08 03:00:00 TS 15.9549 109.404 main 100 77 P_P______PPP__ WP171955 16.0073 109.500 30 -1 15.4976 108.845 2 38 998 16.0073 109.500 TC 30 16.0263 109.396 1 28 16.0073 109.500 30 999 210 4 253
1955276N11116 1955 81 WP MM NOT_NAMED 1955-10-08 06:00:00 TS 15.8762 109.196 main 77 54 O_O______OPO__ jtwc_wp WP171955 15.9000 109.300 30 -1 15.5000 108.500 2 38 998 15.9000 109.300 TC 30 15.9301 109.117 1 27 15.9000 109.300 30 1002 180 5 251
1955276N11116 1955 81 WP MM NOT_NAMED 1955-10-08 09:00:00 TS 15.8030 108.954 main 54 15 P________PPP__ WP171955 15.7977 108.987 27 -1 2 15.7977 108.987 TC 27 15.8189 108.854 1 26 15.7977 108.987 27 1003 150 6 253
1955276N11116 1955 81 WP MM NOT_NAMED 1955-10-08 12:00:00 TS 15.7000 108.600 main 15 O________OOO__ jtwc_wp WP171955 15.7000 108.600 25 -1 15.7000 108.600 TC 25 15.7000 108.600 1 25 15.7000 108.600 25 1004 120 7 253

デジタル台風データ・検索

IBTrACS Databaseについて

本データベースは、米国NOAAが公開する1842年以降の世界の熱帯低気圧のベストトラックデータアーカイブInternational Best Track Archive for Climate Stewardship (IBTrACS)を、ウェブで閲覧しやすい形式に変換したものです。

最終更新日:2021-11-26